createdAt,value
2019-01-26T00:00:17.466Z,1000.71
2019-01-26T00:01:17.440Z,1000.68
2019-01-26T00:02:17.409Z,1000.67
2019-01-26T00:03:17.383Z,1000.69
2019-01-26T00:04:17.355Z,1000.66
2019-01-26T00:05:17.334Z,1000.69
2019-01-26T00:06:17.295Z,1000.67
2019-01-26T00:07:17.269Z,1000.64
2019-01-26T00:08:17.241Z,1000.63
2019-01-26T00:09:17.244Z,1000.64
2019-01-26T00:10:17.184Z,1000.60
2019-01-26T00:11:17.154Z,1000.60
2019-01-26T00:12:17.127Z,1000.59
2019-01-26T00:13:17.098Z,1000.64
2019-01-26T00:14:17.069Z,1000.65
2019-01-26T00:15:17.044Z,1000.67
2019-01-26T00:16:21.056Z,1000.59
2019-01-26T00:17:16.986Z,1000.59
2019-01-26T00:18:16.959Z,1000.57
2019-01-26T00:19:16.929Z,1000.61
2019-01-26T00:20:16.903Z,1000.60
2019-01-26T00:21:16.878Z,1000.57
2019-01-26T00:22:16.848Z,1000.60
2019-01-26T00:23:16.816Z,1000.62
2019-01-26T00:24:16.791Z,1000.57
2019-01-26T00:25:16.761Z,1000.60
2019-01-26T00:26:16.735Z,1000.61
2019-01-26T00:27:16.718Z,1000.64
2019-01-26T00:28:16.682Z,1000.60
2019-01-26T00:29:16.651Z,1000.58
2019-01-26T00:30:16.619Z,1000.42
2019-01-26T00:31:16.593Z,1000.41
2019-01-26T00:32:16.566Z,1000.37
2019-01-26T00:33:16.536Z,1000.34
2019-01-26T00:34:16.519Z,1000.37
2019-01-26T00:35:16.482Z,1000.47
2019-01-26T00:36:16.453Z,1000.52
2019-01-26T00:37:16.427Z,1000.50
2019-01-26T00:38:16.398Z,1000.46
2019-01-26T00:39:16.370Z,1000.44
2019-01-26T00:40:16.341Z,1000.41
2019-01-26T00:41:16.312Z,1000.39
2019-01-26T00:42:16.285Z,1000.36
2019-01-26T00:43:16.256Z,1000.34
2019-01-26T00:44:16.230Z,1000.42
2019-01-26T00:45:16.203Z,1000.49
2019-01-26T00:46:16.173Z,1000.51
2019-01-26T00:47:16.150Z,1000.52
2019-01-26T00:48:16.119Z,1000.51
2019-01-26T00:49:16.091Z,1000.52
2019-01-26T00:50:16.063Z,1000.45
2019-01-26T00:51:17.304Z,1000.44
2019-01-26T00:52:16.007Z,1000.44
2019-01-26T00:53:15.986Z,1000.43
2019-01-26T00:54:15.952Z,1000.46
2019-01-26T00:55:15.924Z,1000.51
2019-01-26T00:56:15.900Z,1000.54
2019-01-26T00:57:15.871Z,1000.53
2019-01-26T00:58:15.840Z,1000.48
2019-01-26T00:59:15.814Z,1000.39
2019-01-26T01:00:15.788Z,1000.40
2019-01-26T01:01:15.761Z,1000.44
2019-01-26T01:02:15.736Z,1000.46
2019-01-26T01:03:15.703Z,1000.53
2019-01-26T01:04:15.674Z,1000.60
2019-01-26T01:05:15.649Z,1000.55
2019-01-26T01:06:15.619Z,1000.48
2019-01-26T01:07:15.594Z,1000.43
2019-01-26T01:08:15.591Z,1000.40
2019-01-26T01:09:15.537Z,1000.44
2019-01-26T01:10:15.511Z,1000.50
2019-01-26T01:11:15.486Z,1000.53
2019-01-26T01:12:15.453Z,1000.47
2019-01-26T01:13:15.444Z,1000.37
2019-01-26T01:14:15.443Z,1000.37
2019-01-26T01:15:15.385Z,1000.40
2019-01-26T01:16:15.350Z,1000.42
2019-01-26T01:17:15.375Z,1000.44
2019-01-26T01:18:15.288Z,1000.44
2019-01-26T01:19:15.353Z,1000.45
2019-01-26T01:20:15.258Z,1000.45
2019-01-26T01:21:15.210Z,1000.40
2019-01-26T01:22:15.177Z,1000.31
2019-01-26T01:23:15.157Z,1000.30
2019-01-26T01:24:15.127Z,1000.26
2019-01-26T01:25:15.098Z,1000.26
2019-01-26T01:26:15.068Z,1000.37
2019-01-26T01:27:15.041Z,1000.37
2019-01-26T01:28:15.012Z,1000.34
2019-01-26T01:29:14.986Z,1000.27
2019-01-26T01:30:14.958Z,1000.29
2019-01-26T01:31:14.931Z,1000.27
2019-01-26T01:32:14.907Z,1000.26
2019-01-26T01:33:14.880Z,1000.25
2019-01-26T01:34:14.847Z,1000.26
2019-01-26T01:35:14.820Z,1000.28
2019-01-26T01:36:14.796Z,1000.28
2019-01-26T01:37:14.768Z,1000.21
2019-01-26T01:38:14.739Z,1000.22
2019-01-26T01:39:14.713Z,1000.24
2019-01-26T01:40:14.684Z,1000.15
2019-01-26T01:41:14.659Z,1000.12
2019-01-26T01:42:14.630Z,1000.06
2019-01-26T01:43:14.602Z,1000.11
2019-01-26T01:44:14.574Z,1000.14
2019-01-26T01:45:14.546Z,1000.17
2019-01-26T01:46:14.519Z,1000.19
2019-01-26T01:47:14.494Z,1000.19
2019-01-26T01:48:14.469Z,1000.09
2019-01-26T01:49:14.438Z,1000.09
2019-01-26T01:50:14.411Z,1000.11
2019-01-26T01:51:14.386Z,1000.14
2019-01-26T01:52:14.357Z,1000.12
2019-01-26T01:53:14.334Z,1000.11
2019-01-26T01:54:14.310Z,1000.12
2019-01-26T01:55:14.277Z,1000.12
2019-01-26T01:56:14.251Z,1000.07
2019-01-26T01:57:14.252Z,1000.09
2019-01-26T01:58:14.196Z,1000.11
2019-01-26T01:59:14.166Z,1000.13
2019-01-26T02:00:14.141Z,1000.13
2019-01-26T02:01:14.136Z,1000.16
2019-01-26T02:02:14.087Z,1000.15
2019-01-26T02:03:14.059Z,1000.16
2019-01-26T02:04:14.033Z,1000.15
2019-01-26T02:05:14.005Z,1000.14
2019-01-26T02:06:13.977Z,1000.15
2019-01-26T02:07:13.961Z,1000.12
2019-01-26T02:08:13.922Z,1000.12
2019-01-26T02:09:13.901Z,1000.09
2019-01-26T02:10:13.868Z,1000.09
2019-01-26T02:11:13.841Z,1000.01
2019-01-26T02:12:13.815Z,1000.06
2019-01-26T02:13:13.786Z,1000.06
2019-01-26T02:14:13.761Z,1000.03
2019-01-26T02:15:13.765Z,1000.04
2019-01-26T02:16:13.706Z,1000.02
2019-01-26T02:17:13.679Z,1000.04
2019-01-26T02:18:13.655Z,1000.00
2019-01-26T02:19:13.632Z,1000.01
2019-01-26T02:20:13.601Z,1000.03
2019-01-26T02:21:13.571Z,1000.04
2019-01-26T02:22:13.555Z,1000.06
2019-01-26T02:23:13.518Z,1000.10
2019-01-26T02:24:13.492Z,1000.08
2019-01-26T02:25:13.468Z,1000.02
2019-01-26T02:26:13.434Z,1000.07
2019-01-26T02:27:13.420Z,1000.04
2019-01-26T02:28:13.383Z,1000.07
2019-01-26T02:29:13.362Z,1000.09
2019-01-26T02:30:13.332Z,1000.06
2019-01-26T02:31:13.300Z,1000.03
2019-01-26T02:32:13.276Z,1000.00
2019-01-26T02:33:13.253Z,1000.02
2019-01-26T02:34:13.221Z,1000.00
2019-01-26T02:35:13.214Z,999.99
2019-01-26T02:36:13.166Z,1000.04
2019-01-26T02:37:13.139Z,999.98
2019-01-26T02:38:13.118Z,1000.03
2019-01-26T02:39:13.089Z,999.99
2019-01-26T02:40:13.061Z,999.97
2019-01-26T02:41:13.032Z,999.96
2019-01-26T02:42:13.007Z,999.94
2019-01-26T02:43:12.993Z,1000.01
2019-01-26T02:44:12.953Z,999.94
2019-01-26T02:45:12.929Z,999.97
2019-01-26T02:46:12.897Z,999.91
2019-01-26T02:47:12.871Z,999.95
2019-01-26T02:48:12.844Z,999.91
2019-01-26T02:49:12.816Z,999.93
2019-01-26T02:50:12.792Z,999.90
2019-01-26T02:51:12.763Z,999.88
2019-01-26T02:52:12.738Z,999.92
2019-01-26T02:53:12.710Z,999.89
2019-01-26T02:54:12.687Z,999.87
2019-01-26T02:55:12.659Z,999.84
2019-01-26T02:56:12.630Z,999.85
2019-01-26T02:57:12.607Z,999.82
2019-01-26T02:58:12.586Z,999.78
2019-01-26T02:59:12.550Z,999.85
2019-01-26T03:00:12.523Z,999.82
2019-01-26T03:01:12.496Z,999.82
2019-01-26T03:02:12.479Z,999.76
2019-01-26T03:03:12.450Z,999.75
2019-01-26T03:04:12.420Z,999.72
2019-01-26T03:05:12.394Z,999.74
2019-01-26T03:06:12.367Z,999.69
2019-01-26T03:07:12.336Z,999.68
2019-01-26T03:08:12.309Z,999.75
2019-01-26T03:09:12.292Z,999.72
2019-01-26T03:10:12.256Z,999.76
2019-01-26T03:11:12.229Z,999.73
2019-01-26T03:12:12.205Z,999.72
2019-01-26T03:13:12.175Z,999.75
2019-01-26T03:14:12.148Z,999.79
2019-01-26T03:15:12.124Z,999.79
2019-01-26T03:16:12.095Z,999.77
2019-01-26T03:17:12.091Z,999.73
2019-01-26T03:18:12.041Z,999.76
2019-01-26T03:19:12.015Z,999.75
2019-01-26T03:20:11.993Z,999.75
2019-01-26T03:21:11.960Z,999.71
2019-01-26T03:22:11.946Z,999.72
2019-01-26T03:23:11.913Z,999.62
2019-01-26T03:24:11.882Z,999.68
2019-01-26T03:25:11.863Z,999.65
2019-01-26T03:26:11.880Z,999.66
2019-01-26T03:27:11.807Z,999.65
2019-01-26T03:28:11.779Z,999.64
2019-01-26T03:29:11.748Z,999.67
2019-01-26T03:30:11.731Z,999.62
2019-01-26T03:31:11.704Z,999.61
2019-01-26T03:32:11.674Z,999.59
2019-01-26T03:33:11.645Z,999.68
2019-01-26T03:34:11.626Z,999.66
2019-01-26T03:35:11.594Z,999.62
2019-01-26T03:36:11.564Z,999.59
2019-01-26T03:37:11.536Z,999.57
2019-01-26T03:38:11.510Z,999.53
2019-01-26T03:39:11.482Z,999.48
2019-01-26T03:40:11.458Z,999.46
2019-01-26T03:41:11.439Z,999.47
2019-01-26T03:42:11.402Z,999.39
2019-01-26T03:43:11.379Z,999.42
2019-01-26T03:44:11.376Z,999.43
2019-01-26T03:45:11.326Z,999.44
2019-01-26T03:46:11.299Z,999.36
2019-01-26T03:47:13.802Z,999.35
2019-01-26T03:48:11.245Z,999.34
2019-01-26T03:49:11.216Z,999.33
2019-01-26T03:50:11.190Z,999.31
2019-01-26T03:51:11.164Z,999.31
2019-01-26T03:52:11.137Z,999.28
2019-01-26T03:53:11.111Z,999.26
2019-01-26T03:54:11.084Z,999.31
2019-01-26T03:55:11.057Z,999.29
2019-01-26T03:56:11.030Z,999.36
2019-01-26T03:57:11.010Z,999.35
2019-01-26T03:58:10.978Z,999.35
2019-01-26T03:59:10.950Z,999.39
2019-01-26T04:00:10.929Z,999.37
2019-01-26T04:01:10.899Z,999.40
2019-01-26T04:02:10.871Z,999.35
2019-01-26T04:03:10.846Z,999.33
2019-01-26T04:04:10.818Z,999.39
2019-01-26T04:05:10.805Z,999.33
2019-01-26T04:06:10.765Z,999.30
2019-01-26T04:07:10.741Z,999.28
2019-01-26T04:08:10.713Z,999.29
2019-01-26T04:09:10.686Z,999.34
2019-01-26T04:10:10.660Z,999.30
2019-01-26T04:11:10.636Z,999.29
2019-01-26T04:12:10.604Z,999.29
2019-01-26T04:13:10.580Z,999.33
2019-01-26T04:14:10.551Z,999.29
2019-01-26T04:15:10.527Z,999.31
2019-01-26T04:16:10.500Z,999.31
2019-01-26T04:17:10.520Z,999.32
2019-01-26T04:18:10.451Z,999.25
2019-01-26T04:19:10.422Z,999.22
2019-01-26T04:20:10.395Z,999.17
2019-01-26T04:21:10.366Z,999.19
2019-01-26T04:22:10.352Z,999.21
2019-01-26T04:23:10.318Z,999.20
2019-01-26T04:24:10.289Z,999.17
2019-01-26T04:25:10.270Z,999.18
2019-01-26T04:26:10.254Z,999.16
2019-01-26T04:27:10.220Z,999.17
2019-01-26T04:28:10.210Z,999.13
2019-01-26T04:29:11.423Z,999.13
2019-01-26T04:30:10.129Z,999.07
2019-01-26T04:31:10.102Z,999.13
2019-01-26T04:32:10.080Z,999.22
2019-01-26T04:33:10.055Z,999.11
2019-01-26T04:34:10.022Z,999.11
2019-01-26T04:35:09.996Z,999.10
2019-01-26T04:36:09.974Z,999.12
2019-01-26T04:37:09.944Z,999.12
2019-01-26T04:38:09.918Z,999.13
2019-01-26T04:39:09.891Z,999.06
2019-01-26T04:40:09.865Z,999.04
2019-01-26T04:41:09.841Z,999.02
2019-01-26T04:42:09.814Z,999.13
2019-01-26T04:43:09.788Z,999.08
2019-01-26T04:44:09.763Z,999.07
2019-01-26T04:45:09.732Z,999.07
2019-01-26T04:46:09.711Z,999.04
2019-01-26T04:47:09.684Z,999.03
2019-01-26T04:48:09.656Z,999.08
2019-01-26T04:49:09.626Z,999.03
2019-01-26T04:50:09.600Z,999.03
2019-01-26T04:51:09.573Z,999.07
2019-01-26T04:52:09.549Z,999.11
2019-01-26T04:53:09.521Z,999.01
2019-01-26T04:54:09.495Z,998.99
2019-01-26T04:55:09.468Z,998.99
2019-01-26T04:56:09.442Z,999.02
2019-01-26T04:57:09.415Z,999.03
2019-01-26T04:58:09.390Z,999.01
2019-01-26T04:59:09.369Z,998.97
2019-01-26T05:00:09.337Z,999.00
2019-01-26T05:01:09.312Z,999.01
2019-01-26T05:02:09.286Z,998.94
2019-01-26T05:03:09.258Z,999.08
2019-01-26T05:04:09.240Z,999.03
2019-01-26T05:05:09.205Z,999.01
2019-01-26T05:06:09.183Z,998.94
2019-01-26T05:07:09.152Z,998.90
2019-01-26T05:08:09.144Z,998.82
2019-01-26T05:09:09.101Z,998.85
2019-01-26T05:10:09.074Z,998.80
2019-01-26T05:11:09.049Z,998.85
2019-01-26T05:12:09.023Z,998.81
2019-01-26T05:13:08.997Z,998.76
2019-01-26T05:14:08.970Z,998.80
2019-01-26T05:15:08.951Z,998.80
2019-01-26T05:16:08.916Z,998.86
2019-01-26T05:17:08.889Z,998.79
2019-01-26T05:18:08.866Z,998.80
2019-01-26T05:19:08.842Z,998.77
2019-01-26T05:20:08.811Z,998.73
2019-01-26T05:21:08.788Z,998.68
2019-01-26T05:22:08.762Z,998.68
2019-01-26T05:23:08.734Z,998.74
2019-01-26T05:24:08.713Z,998.75
2019-01-26T05:25:08.681Z,998.74
2019-01-26T05:26:08.656Z,998.73
2019-01-26T05:27:08.628Z,998.70
2019-01-26T05:28:08.605Z,998.68
2019-01-26T05:29:08.576Z,998.63
2019-01-26T05:30:08.550Z,998.55
2019-01-26T05:31:08.524Z,998.77
2019-01-26T05:32:08.501Z,998.58
2019-01-26T05:33:08.472Z,998.66
2019-01-26T05:34:08.445Z,998.66
2019-01-26T05:35:08.420Z,998.70
2019-01-26T05:36:08.395Z,998.69
2019-01-26T05:37:08.366Z,998.69
2019-01-26T05:38:08.340Z,998.66
2019-01-26T05:39:08.315Z,998.62
2019-01-26T05:40:08.304Z,998.67
2019-01-26T05:41:08.260Z,998.65
2019-01-26T05:42:08.236Z,998.74
2019-01-26T05:43:08.210Z,998.70
2019-01-26T05:44:08.184Z,998.67
2019-01-26T05:45:08.157Z,998.71
2019-01-26T05:46:08.130Z,998.71
2019-01-26T05:47:08.105Z,998.63
2019-01-26T05:48:08.078Z,998.65
2019-01-26T05:49:08.052Z,998.71
2019-01-26T05:50:08.029Z,998.73
2019-01-26T05:51:08.001Z,998.65
2019-01-26T05:52:08.013Z,998.72
2019-01-26T05:53:07.948Z,998.69
2019-01-26T05:54:07.925Z,998.65
2019-01-26T05:55:07.894Z,998.60
2019-01-26T05:56:07.872Z,998.69
2019-01-26T05:57:07.843Z,998.66
2019-01-26T05:58:07.819Z,998.74
2019-01-26T05:59:07.796Z,998.72
2019-01-26T06:00:07.764Z,998.75
2019-01-26T06:01:07.739Z,998.65
2019-01-26T06:02:07.713Z,998.65
2019-01-26T06:03:07.689Z,998.63
2019-01-26T06:04:07.660Z,998.61
2019-01-26T06:05:07.632Z,998.60
2019-01-26T06:06:07.612Z,998.51
2019-01-26T06:07:07.583Z,998.52
2019-01-26T06:08:07.557Z,998.66
2019-01-26T06:09:07.531Z,998.59
2019-01-26T06:10:07.507Z,998.58
2019-01-26T06:11:07.481Z,998.52
2019-01-26T06:12:07.472Z,998.54
2019-01-26T06:13:07.433Z,998.54
2019-01-26T06:14:07.453Z,998.56
2019-01-26T06:15:07.373Z,998.51
2019-01-26T06:16:07.354Z,998.50
2019-01-26T06:17:07.320Z,998.56
2019-01-26T06:18:07.294Z,998.52
2019-01-26T06:19:07.274Z,998.55
2019-01-26T06:20:07.246Z,998.55
2019-01-26T06:21:07.217Z,998.53
2019-01-26T06:22:07.192Z,998.44
2019-01-26T06:23:07.168Z,998.48
2019-01-26T06:24:07.140Z,998.48
2019-01-26T06:25:07.120Z,998.50
2019-01-26T06:26:07.092Z,998.53
2019-01-26T06:27:07.062Z,998.56
2019-01-26T06:28:07.040Z,998.57
2019-01-26T06:29:07.010Z,998.51
2019-01-26T06:30:06.990Z,998.60
2019-01-26T06:31:06.959Z,998.47
2019-01-26T06:32:06.932Z,998.45
2019-01-26T06:33:06.908Z,998.46
2019-01-26T06:34:06.887Z,998.42
2019-01-26T06:35:06.856Z,998.42
2019-01-26T06:36:06.829Z,998.38
2019-01-26T06:37:06.801Z,998.41
2019-01-26T06:38:06.777Z,998.47
2019-01-26T06:39:06.756Z,998.38
2019-01-26T06:40:06.725Z,998.43
2019-01-26T06:41:06.698Z,998.34
2019-01-26T06:42:06.683Z,998.36
2019-01-26T06:43:06.647Z,998.43
2019-01-26T06:44:06.621Z,998.44
2019-01-26T06:45:06.596Z,998.45
2019-01-26T06:46:06.571Z,998.41
2019-01-26T06:47:06.544Z,998.43
2019-01-26T06:48:06.521Z,998.41
2019-01-26T06:49:06.493Z,998.43
2019-01-26T06:50:06.467Z,998.46
2019-01-26T06:51:06.440Z,998.44
2019-01-26T06:52:06.417Z,998.43
2019-01-26T06:53:06.391Z,998.45
2019-01-26T06:54:06.371Z,998.44
2019-01-26T06:55:06.340Z,998.44
2019-01-26T06:56:06.312Z,998.41
2019-01-26T06:57:06.286Z,998.39
2019-01-26T06:58:06.260Z,998.46
2019-01-26T06:59:06.237Z,998.42
2019-01-26T07:00:06.208Z,998.50
2019-01-26T07:01:06.182Z,998.41
2019-01-26T07:02:06.176Z,998.54
2019-01-26T07:03:06.133Z,998.43
2019-01-26T07:04:06.109Z,998.47
2019-01-26T07:05:06.080Z,998.52
2019-01-26T07:06:06.056Z,998.53
2019-01-26T07:07:06.027Z,998.49
2019-01-26T07:08:06.003Z,998.44
2019-01-26T07:09:05.975Z,998.49
2019-01-26T07:10:05.951Z,998.47
2019-01-26T07:11:05.924Z,998.53
2019-01-26T07:12:05.904Z,998.50
2019-01-26T07:13:05.873Z,998.44
2019-01-26T07:14:05.854Z,998.42
2019-01-26T07:15:05.821Z,998.43
2019-01-26T07:16:05.808Z,998.44
2019-01-26T07:17:05.835Z,998.41
2019-01-26T07:18:09.548Z,998.44
2019-01-26T07:19:05.736Z,998.43
2019-01-26T07:20:05.693Z,998.43
2019-01-26T07:21:05.665Z,998.40
2019-01-26T07:22:05.640Z,998.45
2019-01-26T07:23:05.613Z,998.46
2019-01-26T07:24:05.588Z,998.47
2019-01-26T07:25:05.562Z,998.50
2019-01-26T07:26:05.555Z,998.52
2019-01-26T07:27:05.513Z,998.56
2019-01-26T07:28:05.489Z,998.53
2019-01-26T07:29:05.459Z,998.51
2019-01-26T07:30:05.437Z,998.53
2019-01-26T07:31:06.603Z,998.57
2019-01-26T07:32:05.386Z,998.59
2019-01-26T07:33:05.359Z,998.56
2019-01-26T07:34:05.331Z,998.66
2019-01-26T07:35:05.306Z,998.59
2019-01-26T07:36:05.288Z,998.63
2019-01-26T07:37:05.253Z,998.59
2019-01-26T07:38:05.227Z,998.60
2019-01-26T07:39:05.205Z,998.59
2019-01-26T07:40:05.180Z,998.53
2019-01-26T07:41:05.157Z,998.57
2019-01-26T07:42:05.124Z,998.59
2019-01-26T07:43:05.101Z,998.55
2019-01-26T07:44:05.147Z,998.55
2019-01-26T07:45:05.048Z,998.59
2019-01-26T07:46:05.025Z,998.64
2019-01-26T07:47:04.996Z,998.60
2019-01-26T07:48:04.971Z,998.60
2019-01-26T07:49:04.945Z,998.57
2019-01-26T07:50:04.920Z,998.59
2019-01-26T07:51:04.898Z,998.60
2019-01-26T07:52:04.870Z,998.62
2019-01-26T07:53:04.844Z,998.59
2019-01-26T07:54:04.822Z,998.61
2019-01-26T07:55:04.790Z,998.60
2019-01-26T07:56:04.763Z,998.64
2019-01-26T07:57:04.743Z,998.56
2019-01-26T07:58:04.715Z,998.57
2019-01-26T07:59:04.687Z,998.53
2019-01-26T08:00:04.663Z,998.56
2019-01-26T08:01:04.653Z,998.57
2019-01-26T08:02:04.611Z,998.61
2019-01-26T08:03:04.584Z,998.60
2019-01-26T08:04:04.560Z,998.58
2019-01-26T08:05:04.532Z,998.58
2019-01-26T08:06:04.508Z,998.57
2019-01-26T08:07:04.483Z,998.64
2019-01-26T08:08:04.457Z,998.55
2019-01-26T08:09:04.508Z,998.60
2019-01-26T08:10:04.409Z,998.59
2019-01-26T08:11:04.384Z,998.72
2019-01-26T08:12:04.353Z,998.68
2019-01-26T08:13:04.326Z,998.76
2019-01-26T08:14:04.340Z,998.66
2019-01-26T08:15:04.276Z,998.67
2019-01-26T08:16:04.249Z,998.67
2019-01-26T08:17:04.225Z,998.66
2019-01-26T08:18:04.197Z,998.65
2019-01-26T08:19:04.181Z,998.57
2019-01-26T08:20:04.148Z,998.65
2019-01-26T08:21:04.158Z,998.62
2019-01-26T08:22:04.175Z,998.66
2019-01-26T08:23:04.083Z,998.68
2019-01-26T08:24:04.045Z,998.62
2019-01-26T08:25:04.017Z,998.62
2019-01-26T08:26:03.997Z,998.60
2019-01-26T08:27:03.968Z,998.59
2019-01-26T08:28:03.941Z,998.62
2019-01-26T08:29:03.916Z,998.62
2019-01-26T08:30:03.893Z,998.64
2019-01-26T08:31:03.865Z,998.67
2019-01-26T08:32:03.841Z,998.67
2019-01-26T08:33:03.813Z,998.67
2019-01-26T08:34:03.869Z,998.68
2019-01-26T08:35:03.766Z,998.69
2019-01-26T08:36:03.737Z,998.70
2019-01-26T08:37:03.711Z,998.66
2019-01-26T08:38:03.685Z,998.63
2019-01-26T08:39:03.659Z,998.75
2019-01-26T08:40:03.639Z,998.62
2019-01-26T08:41:03.620Z,998.70
2019-01-26T08:42:03.616Z,998.65
2019-01-26T08:43:03.577Z,998.68
2019-01-26T08:44:03.532Z,998.66
2019-01-26T08:45:03.505Z,998.66
2019-01-26T08:46:03.480Z,998.64
2019-01-26T08:47:03.455Z,998.75
2019-01-26T08:48:03.466Z,998.62
2019-01-26T08:49:03.403Z,998.67
2019-01-26T08:50:03.395Z,998.71
2019-01-26T08:51:03.353Z,998.66
2019-01-26T08:52:03.353Z,998.70
2019-01-26T08:53:03.299Z,998.71
2019-01-26T08:54:03.276Z,998.68
2019-01-26T08:55:03.253Z,998.69
2019-01-26T08:56:03.226Z,998.69
2019-01-26T08:57:03.203Z,998.66
2019-01-26T08:58:03.175Z,998.71
2019-01-26T08:59:03.151Z,998.67
2019-01-26T09:00:03.124Z,998.65
2019-01-26T09:01:03.098Z,998.66
2019-01-26T09:02:03.070Z,998.69
2019-01-26T09:03:03.044Z,998.65
2019-01-26T09:04:03.022Z,998.66
2019-01-26T09:05:02.994Z,998.59
2019-01-26T09:06:02.966Z,998.62
2019-01-26T09:07:02.955Z,998.67
2019-01-26T09:08:02.917Z,998.69
2019-01-26T09:09:02.898Z,998.69
2019-01-26T09:10:02.866Z,998.66
2019-01-26T09:11:02.841Z,998.68
2019-01-26T09:12:02.815Z,998.70
2019-01-26T09:13:02.789Z,998.71
2019-01-26T09:14:02.765Z,998.67
2019-01-26T09:15:02.742Z,998.62
2019-01-26T09:16:02.713Z,998.68
2019-01-26T09:17:02.709Z,998.66
2019-01-26T09:18:02.661Z,998.61
2019-01-26T09:19:02.635Z,998.68
2019-01-26T09:20:02.611Z,998.70
2019-01-26T09:21:02.612Z,998.73
2019-01-26T09:22:02.563Z,998.76
2019-01-26T09:23:02.533Z,998.71
2019-01-26T09:24:02.507Z,998.73
2019-01-26T09:25:02.484Z,998.81
2019-01-26T09:26:02.457Z,998.78
2019-01-26T09:27:02.440Z,998.71
2019-01-26T09:28:02.406Z,998.74
2019-01-26T09:29:02.380Z,998.73
2019-01-26T09:30:02.355Z,998.81
2019-01-26T09:31:02.338Z,998.80
2019-01-26T09:32:02.306Z,998.74
2019-01-26T09:33:02.278Z,998.73
2019-01-26T09:34:02.256Z,998.73
2019-01-26T09:35:02.228Z,998.80
2019-01-26T09:36:02.203Z,998.77
2019-01-26T09:37:02.176Z,998.80
2019-01-26T09:38:02.152Z,998.75
2019-01-26T09:39:02.129Z,998.77
2019-01-26T09:40:02.102Z,998.81
2019-01-26T09:41:02.072Z,998.77
2019-01-26T09:42:02.050Z,998.80
2019-01-26T09:43:02.025Z,998.79
2019-01-26T09:44:01.997Z,998.84
2019-01-26T09:45:01.972Z,998.82
2019-01-26T09:46:02.001Z,998.84
2019-01-26T09:47:01.923Z,998.80
2019-01-26T09:48:01.896Z,998.83
2019-01-26T09:49:01.882Z,998.85
2019-01-26T09:50:01.859Z,998.86
2019-01-26T09:51:01.832Z,998.83
2019-01-26T09:52:01.793Z,998.81
2019-01-26T09:53:01.770Z,998.84
2019-01-26T09:54:01.743Z,998.87
2019-01-26T09:55:01.719Z,998.86
2019-01-26T09:56:01.691Z,998.86
2019-01-26T09:57:01.665Z,998.85
2019-01-26T09:58:01.639Z,998.85
2019-01-26T09:59:01.617Z,998.81
2019-01-26T10:00:01.591Z,998.79
2019-01-26T10:01:01.565Z,998.80
2019-01-26T10:02:01.538Z,998.88
2019-01-26T10:03:01.578Z,998.87
2019-01-26T10:04:01.506Z,998.81
2019-01-26T10:05:01.476Z,998.78
2019-01-26T10:06:01.436Z,998.80
2019-01-26T10:07:01.410Z,998.81
2019-01-26T10:08:01.386Z,998.81
2019-01-26T10:09:01.359Z,998.74
2019-01-26T10:10:02.424Z,998.80
2019-01-26T10:11:01.308Z,998.75
2019-01-26T10:12:01.292Z,998.76
2019-01-26T10:13:01.326Z,998.78
2019-01-26T10:14:01.261Z,998.79
2019-01-26T10:15:01.207Z,998.84
2019-01-26T10:16:01.215Z,998.71
2019-01-26T10:17:01.184Z,998.74
2019-01-26T10:18:01.129Z,998.81
2019-01-26T10:19:01.104Z,998.76
2019-01-26T10:20:01.080Z,998.81
2019-01-26T10:21:01.055Z,998.76
2019-01-26T10:22:01.034Z,998.77
2019-01-26T10:23:01.003Z,998.76
2019-01-26T10:24:00.980Z,998.78
2019-01-26T10:25:00.952Z,998.71
2019-01-26T10:26:00.928Z,998.75
2019-01-26T10:27:00.901Z,998.73
2019-01-26T10:28:00.875Z,998.74
2019-01-26T10:29:00.850Z,998.69
2019-01-26T10:30:00.824Z,998.70
2019-01-26T10:31:00.797Z,998.65
2019-01-26T10:32:00.773Z,998.70
2019-01-26T10:33:00.749Z,998.70
2019-01-26T10:34:00.722Z,998.64
2019-01-26T10:35:00.703Z,998.68
2019-01-26T10:36:00.675Z,998.68
2019-01-26T10:37:00.645Z,998.64
2019-01-26T10:38:00.626Z,998.66
2019-01-26T10:39:00.596Z,998.68
2019-01-26T10:40:00.572Z,998.69
2019-01-26T10:41:00.544Z,998.69
2019-01-26T10:42:00.518Z,998.68
2019-01-26T10:43:00.497Z,998.66
2019-01-26T10:44:00.469Z,998.59
2019-01-26T10:45:00.443Z,998.62
2019-01-26T10:46:00.417Z,998.61
2019-01-26T10:47:00.393Z,998.54
2019-01-26T10:48:00.373Z,998.55
2019-01-26T10:49:00.930Z,998.56
2019-01-26T10:50:00.315Z,998.53
2019-01-26T10:51:00.293Z,998.52
2019-01-26T10:52:00.281Z,998.51
2019-01-26T10:53:00.240Z,998.49
2019-01-26T10:54:00.215Z,998.42
2019-01-26T10:55:00.292Z,998.47
2019-01-26T10:56:00.164Z,998.43
2019-01-26T10:57:00.138Z,998.46
2019-01-26T10:58:00.111Z,998.45
2019-01-26T10:59:00.086Z,998.45
2019-01-26T11:00:00.096Z,998.47
2019-01-26T11:01:00.035Z,998.38
2019-01-26T11:02:00.011Z,998.43
2019-01-26T11:02:59.987Z,998.37
2019-01-26T11:03:59.961Z,998.41
2019-01-26T11:04:59.934Z,998.37
2019-01-26T11:05:59.932Z,998.38
2019-01-26T11:06:59.885Z,998.37
2019-01-26T11:07:59.882Z,998.50
2019-01-26T11:08:59.832Z,998.38
2019-01-26T11:09:59.808Z,998.39
2019-01-26T11:10:59.781Z,998.29
2019-01-26T11:11:59.758Z,998.38
2019-01-26T11:12:59.832Z,998.34
2019-01-26T11:13:59.752Z,998.35
2019-01-26T11:14:59.682Z,998.35
2019-01-26T11:15:59.658Z,998.31
2019-01-26T11:16:59.629Z,998.29
2019-01-26T11:17:59.604Z,998.30
2019-01-26T11:18:59.581Z,998.28
2019-01-26T11:19:59.556Z,998.31
2019-01-26T11:20:59.529Z,998.32
2019-01-26T11:21:59.504Z,998.36
2019-01-26T11:22:59.478Z,998.29
2019-01-26T11:23:59.454Z,998.35
2019-01-26T11:24:59.427Z,998.29
2019-01-26T11:25:59.443Z,998.28
2019-01-26T11:27:00.332Z,998.25
2019-01-26T11:27:59.352Z,998.28
2019-01-26T11:28:59.324Z,998.26
2019-01-26T11:29:59.301Z,998.27
2019-01-26T11:30:59.281Z,998.28
2019-01-26T11:31:59.249Z,998.26
2019-01-26T11:32:59.222Z,998.24
2019-01-26T11:33:59.198Z,998.21
2019-01-26T11:34:59.188Z,998.22
2019-01-26T11:35:59.146Z,998.20
2019-01-26T11:36:59.139Z,998.24
2019-01-26T11:37:59.095Z,998.16
2019-01-26T11:38:59.071Z,998.16
2019-01-26T11:39:59.047Z,998.18
2019-01-26T11:40:59.019Z,998.25
2019-01-26T11:41:58.995Z,998.20
2019-01-26T11:42:58.969Z,998.20
2019-01-26T11:43:58.946Z,998.14
2019-01-26T11:44:58.923Z,998.17
2019-01-26T11:45:58.893Z,998.11
2019-01-26T11:46:58.867Z,998.09
2019-01-26T11:47:58.842Z,998.05
2019-01-26T11:48:58.816Z,998.06
2019-01-26T11:49:58.792Z,998.03
2019-01-26T11:50:58.767Z,998.09
2019-01-26T11:51:58.742Z,998.03
2019-01-26T11:52:58.714Z,997.97
2019-01-26T11:53:58.688Z,997.92
2019-01-26T11:54:58.665Z,997.90
2019-01-26T11:55:58.639Z,997.94
2019-01-26T11:56:58.617Z,997.98
2019-01-26T11:57:58.588Z,997.97
2019-01-26T11:58:58.570Z,997.93
2019-01-26T11:59:58.538Z,997.95
2019-01-26T12:00:59.520Z,997.96
2019-01-26T12:01:58.489Z,997.92
2019-01-26T12:02:58.526Z,997.93
2019-01-26T12:03:58.436Z,997.92
2019-01-26T12:04:58.412Z,997.90
2019-01-26T12:05:58.385Z,997.88
2019-01-26T12:06:58.364Z,997.89
2019-01-26T12:07:58.362Z,997.82
2019-01-26T12:08:58.318Z,997.87
2019-01-26T12:09:58.322Z,997.89
2019-01-26T12:10:58.308Z,997.90
2019-01-26T12:11:58.261Z,997.86
2019-01-26T12:12:58.208Z,997.85
2019-01-26T12:13:58.194Z,997.83
2019-01-26T12:14:58.186Z,997.83
2019-01-26T12:15:58.178Z,997.85
2019-01-26T12:16:58.110Z,997.81
2019-01-26T12:17:58.083Z,997.81
2019-01-26T12:18:58.057Z,997.83
2019-01-26T12:19:58.033Z,997.82
2019-01-26T12:20:58.012Z,997.82
2019-01-26T12:21:57.980Z,997.81
2019-01-26T12:22:57.988Z,997.83